sensor_id;sensor_type;location;lat;lon;timestamp;temperature;humidity
51793;DHT22;37850;53.178;6.376;2023-04-03T00:01:40;2.90;99.90
51793;DHT22;37850;53.178;6.376;2023-04-03T00:04:06;2.80;99.90
51793;DHT22;37850;53.178;6.376;2023-04-03T00:06:32;2.80;99.90
51793;DHT22;37850;53.178;6.376;2023-04-03T00:08:58;2.80;99.90
51793;DHT22;37850;53.178;6.376;2023-04-03T00:11:23;2.80;99.90
51793;DHT22;37850;53.178;6.376;2023-04-03T00:13:53;2.80;99.90
51793;DHT22;37850;53.178;6.376;2023-04-03T00:16:20;2.80;99.90
51793;DHT22;37850;53.178;6.376;2023-04-03T00:18:46;2.70;99.90
51793;DHT22;37850;53.178;6.376;2023-04-03T00:21:13;2.70;99.90
51793;DHT22;37850;53.178;6.376;2023-04-03T00:23:39;2.70;99.90
51793;DHT22;37850;53.178;6.376;2023-04-03T00:26:05;2.70;99.90
51793;DHT22;37850;53.178;6.376;2023-04-03T00:28:30;2.70;99.90
51793;DHT22;37850;53.178;6.376;2023-04-03T00:30:56;2.60;99.90
51793;DHT22;37850;53.178;6.376;2023-04-03T00:33:22;2.60;99.90
51793;DHT22;37850;53.178;6.376;2023-04-03T00:35:48;2.50;99.90
51793;DHT22;37850;53.178;6.376;2023-04-03T00:38:14;2.50;99.90
51793;DHT22;37850;53.178;6.376;2023-04-03T00:40:43;2.50;99.90
51793;DHT22;37850;53.178;6.376;2023-04-03T00:43:21;2.50;99.90
51793;DHT22;37850;53.178;6.376;2023-04-03T00:45:49;2.40;99.90
51793;DHT22;37850;53.178;6.376;2023-04-03T00:48:21;2.50;99.90
51793;DHT22;37850;53.178;6.376;2023-04-03T00:50:48;2.40;99.90
51793;DHT22;37850;53.178;6.376;2023-04-03T00:53:19;2.80;99.90
51793;DHT22;37850;53.178;6.376;2023-04-03T00:55:47;2.40;99.90
51793;DHT22;37850;53.178;6.376;2023-04-03T00:58:14;2.40;99.90
51793;DHT22;37850;53.178;6.376;2023-04-03T01:00:43;2.60;99.90
51793;DHT22;37850;53.178;6.376;2023-04-03T01:03:11;2.30;99.90
51793;DHT22;37850;53.178;6.376;2023-04-03T01:05:37;2.30;99.90
51793;DHT22;37850;53.178;6.376;2023-04-03T01:08:04;2.30;99.90
51793;DHT22;37850;53.178;6.376;2023-04-03T01:10:29;2.30;99.90
51793;DHT22;37850;53.178;6.376;2023-04-03T01:12:55;2.30;99.90
51793;DHT22;37850;53.178;6.376;2023-04-03T01:15:26;2.20;99.90
51793;DHT22;37850;53.178;6.376;2023-04-03T01:17:56;2.20;99.90
51793;DHT22;37850;53.178;6.376;2023-04-03T01:28:07;2.20;99.90
51793;DHT22;37850;53.178;6.376;2023-04-03T01:30:44;2.20;99.90
51793;DHT22;37850;53.178;6.376;2023-04-03T01:33:12;2.60;99.90
51793;DHT22;37850;53.178;6.376;2023-04-03T01:35:38;2.60;99.90
51793;DHT22;37850;53.178;6.376;2023-04-03T01:38:04;2.10;99.90
51793;DHT22;37850;53.178;6.376;2023-04-03T01:40:29;2.10;99.90
51793;DHT22;37850;53.178;6.376;2023-04-03T01:42:55;2.30;99.90
51793;DHT22;37850;53.178;6.376;2023-04-03T01:45:21;2.30;99.90
51793;DHT22;37850;53.178;6.376;2023-04-03T01:47:47;2.00;99.90
51793;DHT22;37850;53.178;6.376;2023-04-03T01:50:13;1.90;99.90
51793;DHT22;37850;53.178;6.376;2023-04-03T01:52:39;1.90;99.90
51793;DHT22;37850;53.178;6.376;2023-04-03T01:55:05;1.90;99.90
51793;DHT22;37850;53.178;6.376;2023-04-03T01:57:31;1.90;99.90
51793;DHT22;37850;53.178;6.376;2023-04-03T01:59:56;1.90;99.90
51793;DHT22;37850;53.178;6.376;2023-04-03T02:02:22;1.80;99.90
51793;DHT22;37850;53.178;6.376;2023-04-03T02:04:48;1.80;99.90
51793;DHT22;37850;53.178;6.376;2023-04-03T02:07:13;1.70;99.90
51793;DHT22;37850;53.178;6.376;2023-04-03T02:09:39;1.80;99.90
51793;DHT22;37850;53.178;6.376;2023-04-03T02:12:05;1.80;99.90
51793;DHT22;37850;53.178;6.376;2023-04-03T02:14:31;1.80;99.90
51793;DHT22;37850;53.178;6.376;2023-04-03T02:16:56;1.70;99.90
51793;DHT22;37850;53.178;6.376;2023-04-03T02:19:22;1.70;99.90
51793;DHT22;37850;53.178;6.376;2023-04-03T02:21:48;1.70;99.90
51793;DHT22;37850;53.178;6.376;2023-04-03T02:24:14;1.60;99.90
51793;DHT22;37850;53.178;6.376;2023-04-03T02:26:39;1.60;99.90
51793;DHT22;37850;53.178;6.376;2023-04-03T02:29:05;1.60;99.90
51793;DHT22;37850;53.178;6.376;2023-04-03T02:31:31;1.60;99.90
51793;DHT22;37850;53.178;6.376;2023-04-03T02:33:57;1.60;99.90
51793;DHT22;37850;53.178;6.376;2023-04-03T02:36:22;1.60;99.90
51793;DHT22;37850;53.178;6.376;2023-04-03T02:38:48;1.60;99.90
51793;DHT22;37850;53.178;6.376;2023-04-03T02:41:16;1.60;99.90
51793;DHT22;37850;53.178;6.376;2023-04-03T02:43:42;1.50;99.90
51793;DHT22;37850;53.178;6.376;2023-04-03T02:46:08;1.50;99.90
51793;DHT22;37850;53.178;6.376;2023-04-03T02:48:34;1.50;99.90
51793;DHT22;37850;53.178;6.376;2023-04-03T02:51:00;1.50;99.90
51793;DHT22;37850;53.178;6.376;2023-04-03T02:53:26;1.50;99.90
51793;DHT22;37850;53.178;6.376;2023-04-03T02:55:52;1.50;99.90
51793;DHT22;37850;53.178;6.376;2023-04-03T02:58:17;1.40;99.90
51793;DHT22;37850;53.178;6.376;2023-04-03T03:00:43;1.40;99.90
51793;DHT22;37850;53.178;6.376;2023-04-03T03:03:09;1.40;99.90
51793;DHT22;37850;53.178;6.376;2023-04-03T03:05:35;1.30;99.90
51793;DHT22;37850;53.178;6.376;2023-04-03T03:08:01;1.40;99.90
51793;DHT22;37850;53.178;6.376;2023-04-03T03:10:27;1.40;99.90
51793;DHT22;37850;53.178;6.376;2023-04-03T03:12:53;1.30;99.90
51793;DHT22;37850;53.178;6.376;2023-04-03T03:15:18;1.30;99.90
51793;DHT22;37850;53.178;6.376;2023-04-03T03:17:44;1.30;99.90
51793;DHT22;37850;53.178;6.376;2023-04-03T03:20:11;1.30;99.90
51793;DHT22;37850;53.178;6.376;2023-04-03T03:22:37;1.30;99.90
51793;DHT22;37850;53.178;6.376;2023-04-03T03:25:03;1.20;99.90
51793;DHT22;37850;53.178;6.376;2023-04-03T03:27:29;1.30;99.90
51793;DHT22;37850;53.178;6.376;2023-04-03T03:29:55;1.20;99.90
51793;DHT22;37850;53.178;6.376;2023-04-03T03:32:21;1.20;99.90
51793;DHT22;37850;53.178;6.376;2023-04-03T03:34:46;1.20;99.90
51793;DHT22;37850;53.178;6.376;2023-04-03T03:37:12;1.10;99.90
51793;DHT22;37850;53.178;6.376;2023-04-03T03:39:38;1.10;99.90
51793;DHT22;37850;53.178;6.376;2023-04-03T03:42:03;1.10;99.90
51793;DHT22;37850;53.178;6.376;2023-04-03T03:44:29;1.10;99.90
51793;DHT22;37850;53.178;6.376;2023-04-03T03:46:55;1.10;99.90
51793;DHT22;37850;53.178;6.376;2023-04-03T03:49:21;1.00;99.90
51793;DHT22;37850;53.178;6.376;2023-04-03T03:51:47;0.90;99.90
51793;DHT22;37850;53.178;6.376;2023-04-03T03:54:13;1.00;99.90
51793;DHT22;37850;53.178;6.376;2023-04-03T03:56:39;0.90;99.90
51793;DHT22;37850;53.178;6.376;2023-04-03T03:59:05;0.90;99.90
51793;DHT22;37850;53.178;6.376;2023-04-03T04:01:31;0.80;99.90
51793;DHT22;37850;53.178;6.376;2023-04-03T04:03:57;1.10;99.90
51793;DHT22;37850;53.178;6.376;2023-04-03T04:06:23;0.80;99.90
51793;DHT22;37850;53.178;6.376;2023-04-03T04:08:49;0.70;99.90
51793;DHT22;37850;53.178;6.376;2023-04-03T04:11:15;0.70;99.90
51793;DHT22;37850;53.178;6.376;2023-04-03T04:13:41;0.70;99.90
51793;DHT22;37850;53.178;6.376;2023-04-03T04:16:07;1.00;99.90
51793;DHT22;37850;53.178;6.376;2023-04-03T04:18:33;0.60;99.90
51793;DHT22;37850;53.178;6.376;2023-04-03T04:20:59;0.90;99.90
51793;DHT22;37850;53.178;6.376;2023-04-03T04:23:25;0.50;99.90
51793;DHT22;37850;53.178;6.376;2023-04-03T04:25:51;0.50;99.90
51793;DHT22;37850;53.178;6.376;2023-04-03T04:28:17;1.10;99.90
51793;DHT22;37850;53.178;6.376;2023-04-03T04:30:43;0.50;99.90
51793;DHT22;37850;53.178;6.376;2023-04-03T04:33:09;0.80;99.90
51793;DHT22;37850;53.178;6.376;2023-04-03T04:35:35;0.50;99.90
51793;DHT22;37850;53.178;6.376;2023-04-03T04:38:01;0.70;99.90
51793;DHT22;37850;53.178;6.376;2023-04-03T04:40:27;0.40;99.90
51793;DHT22;37850;53.178;6.376;2023-04-03T04:42:53;0.40;99.90
51793;DHT22;37850;53.178;6.376;2023-04-03T04:45:18;0.40;99.90
51793;DHT22;37850;53.178;6.376;2023-04-03T04:47:45;0.40;99.90
51793;DHT22;37850;53.178;6.376;2023-04-03T04:50:12;0.40;99.90
51793;DHT22;37850;53.178;6.376;2023-04-03T04:52:38;0.40;99.90
51793;DHT22;37850;53.178;6.376;2023-04-03T04:55:05;0.40;99.90
51793;DHT22;37850;53.178;6.376;2023-04-03T04:57:30;0.40;99.90
51793;DHT22;37850;53.178;6.376;2023-04-03T04:59:56;0.60;99.90
51793;DHT22;37850;53.178;6.376;2023-04-03T05:02:22;0.30;99.90
51793;DHT22;37850;53.178;6.376;2023-04-03T05:04:48;0.30;99.90
51793;DHT22;37850;53.178;6.376;2023-04-03T05:07:15;0.30;99.90
51793;DHT22;37850;53.178;6.376;2023-04-03T05:09:41;0.30;99.90
51793;DHT22;37850;53.178;6.376;2023-04-03T05:12:07;1.10;99.90
51793;DHT22;37850;53.178;6.376;2023-04-03T05:14:33;0.20;99.90
51793;DHT22;37850;53.178;6.376;2023-04-03T05:16:59;0.20;99.90
51793;DHT22;37850;53.178;6.376;2023-04-03T05:19:24;0.20;99.90
51793;DHT22;37850;53.178;6.376;2023-04-03T05:21:50;0.20;99.90
51793;DHT22;37850;53.178;6.376;2023-04-03T05:24:16;0.20;99.90
51793;DHT22;37850;53.178;6.376;2023-04-03T05:26:43;0.20;99.90
51793;DHT22;37850;53.178;6.376;2023-04-03T05:29:08;0.80;99.90
51793;DHT22;37850;53.178;6.376;2023-04-03T05:31:34;0.60;99.90
51793;DHT22;37850;53.178;6.376;2023-04-03T05:34:00;0.20;99.90
51793;DHT22;37850;53.178;6.376;2023-04-03T05:36:26;0.10;99.90
51793;DHT22;37850;53.178;6.376;2023-04-03T05:38:53;0.10;99.90
51793;DHT22;37850;53.178;6.376;2023-04-03T05:41:19;0.20;99.90
51793;DHT22;37850;53.178;6.376;2023-04-03T05:43:46;0.10;99.90
51793;DHT22;37850;53.178;6.376;2023-04-03T05:46:14;0.20;99.90
51793;DHT22;37850;53.178;6.376;2023-04-03T05:48:41;0.20;99.90
51793;DHT22;37850;53.178;6.376;2023-04-03T05:51:09;0.20;99.90
51793;DHT22;37850;53.178;6.376;2023-04-03T05:53:38;0.40;99.90
51793;DHT22;37850;53.178;6.376;2023-04-03T05:56:04;0.70;99.90
51793;DHT22;37850;53.178;6.376;2023-04-03T05:58:30;1.80;99.90
51793;DHT22;37850;53.178;6.376;2023-04-03T06:00:56;1.20;99.90
51793;DHT22;37850;53.178;6.376;2023-04-03T06:03:22;1.50;99.90
51793;DHT22;37850;53.178;6.376;2023-04-03T06:05:48;1.80;99.90
51793;DHT22;37850;53.178;6.376;2023-04-03T06:08:14;1.90;99.90
51793;DHT22;37850;53.178;6.376;2023-04-03T06:10:40;1.90;99.90
51793;DHT22;37850;53.178;6.376;2023-04-03T06:13:06;1.90;99.90
51793;DHT22;37850;53.178;6.376;2023-04-03T06:15:32;2.30;99.90
51793;DHT22;37850;53.178;6.376;2023-04-03T06:17:59;2.10;99.90
51793;DHT22;37850;53.178;6.376;2023-04-03T06:20:25;2.30;99.90
51793;DHT22;37850;53.178;6.376;2023-04-03T06:22:51;2.30;99.90
51793;DHT22;37850;53.178;6.376;2023-04-03T06:25:17;2.30;99.90
51793;DHT22;37850;53.178;6.376;2023-04-03T06:27:44;2.30;99.90
51793;DHT22;37850;53.178;6.376;2023-04-03T06:30:11;2.50;99.90
51793;DHT22;37850;53.178;6.376;2023-04-03T06:32:37;2.70;99.90
51793;DHT22;37850;53.178;6.376;2023-04-03T06:35:04;2.80;99.90
51793;DHT22;37850;53.178;6.376;2023-04-03T06:37:30;3.00;99.90
51793;DHT22;37850;53.178;6.376;2023-04-03T06:39:56;3.10;99.90
51793;DHT22;37850;53.178;6.376;2023-04-03T06:42:22;3.20;99.90
51793;DHT22;37850;53.178;6.376;2023-04-03T06:44:48;3.20;99.90
51793;DHT22;37850;53.178;6.376;2023-04-03T06:47:15;3.30;99.90
51793;DHT22;37850;53.178;6.376;2023-04-03T06:49:42;3.40;99.90
51793;DHT22;37850;53.178;6.376;2023-04-03T06:52:09;3.40;99.90
51793;DHT22;37850;53.178;6.376;2023-04-03T06:54:35;3.40;99.90
51793;DHT22;37850;53.178;6.376;2023-04-03T06:57:02;3.40;99.90
51793;DHT22;37850;53.178;6.376;2023-04-03T06:59:27;3.40;99.90
51793;DHT22;37850;53.178;6.376;2023-04-03T07:01:53;3.40;99.90
51793;DHT22;37850;53.178;6.376;2023-04-03T07:04:22;3.70;99.90
51793;DHT22;37850;53.178;6.376;2023-04-03T07:06:48;3.50;99.90
51793;DHT22;37850;53.178;6.376;2023-04-03T07:09:14;3.60;99.90
51793;DHT22;37850;53.178;6.376;2023-04-03T07:11:41;3.80;99.90
51793;DHT22;37850;53.178;6.376;2023-04-03T07:14:06;3.90;99.90
51793;DHT22;37850;53.178;6.376;2023-04-03T07:16:34;4.10;99.90
51793;DHT22;37850;53.178;6.376;2023-04-03T07:19:00;4.00;99.90
51793;DHT22;37850;53.178;6.376;2023-04-03T07:21:27;4.40;99.90
51793;DHT22;37850;53.178;6.376;2023-04-03T07:23:54;4.10;99.90
51793;DHT22;37850;53.178;6.376;2023-04-03T07:26:22;4.30;99.90
51793;DHT22;37850;53.178;6.376;2023-04-03T07:28:48;4.90;99.90
51793;DHT22;37850;53.178;6.376;2023-04-03T07:31:17;4.50;99.90
51793;DHT22;37850;53.178;6.376;2023-04-03T07:33:44;4.80;99.90
51793;DHT22;37850;53.178;6.376;2023-04-03T07:36:15;5.40;99.90
51793;DHT22;37850;53.178;6.376;2023-04-03T07:38:41;4.80;99.90
51793;DHT22;37850;53.178;6.376;2023-04-03T07:41:12;5.00;99.90
51793;DHT22;37850;53.178;6.376;2023-04-03T07:43:39;5.00;99.90
51793;DHT22;37850;53.178;6.376;2023-04-03T07:46:06;5.10;99.90
51793;DHT22;37850;53.178;6.376;2023-04-03T07:48:32;5.50;99.90
51793;DHT22;37850;53.178;6.376;2023-04-03T07:51:02;5.60;99.90
51793;DHT22;37850;53.178;6.376;2023-04-03T07:53:28;5.30;99.90
51793;DHT22;37850;53.178;6.376;2023-04-03T07:55:54;5.30;99.90
51793;DHT22;37850;53.178;6.376;2023-04-03T07:58:22;5.40;99.90
51793;DHT22;37850;53.178;6.376;2023-04-03T08:00:48;5.40;99.90
51793;DHT22;37850;53.178;6.376;2023-04-03T08:03:15;5.40;99.90
51793;DHT22;37850;53.178;6.376;2023-04-03T08:05:46;5.50;99.90
51793;DHT22;37850;53.178;6.376;2023-04-03T08:08:13;5.60;99.90
51793;DHT22;37850;53.178;6.376;2023-04-03T08:10:40;5.50;99.90
51793;DHT22;37850;53.178;6.376;2023-04-03T08:13:06;5.60;99.90
51793;DHT22;37850;53.178;6.376;2023-04-03T08:15:32;5.60;99.90
51793;DHT22;37850;53.178;6.376;2023-04-03T08:17:59;6.10;99.90
51793;DHT22;37850;53.178;6.376;2023-04-03T08:20:26;5.60;99.90
51793;DHT22;37850;53.178;6.376;2023-04-03T08:22:53;5.70;99.90
51793;DHT22;37850;53.178;6.376;2023-04-03T08:25:19;5.80;99.90
51793;DHT22;37850;53.178;6.376;2023-04-03T08:27:47;5.80;99.90
51793;DHT22;37850;53.178;6.376;2023-04-03T08:30:13;5.90;99.90
51793;DHT22;37850;53.178;6.376;2023-04-03T08:32:39;5.90;99.90
51793;DHT22;37850;53.178;6.376;2023-04-03T08:35:07;5.90;99.90
51793;DHT22;37850;53.178;6.376;2023-04-03T08:37:35;6.00;99.90
51793;DHT22;37850;53.178;6.376;2023-04-03T08:40:03;6.10;99.90
51793;DHT22;37850;53.178;6.376;2023-04-03T08:42:54;6.10;99.90
51793;DHT22;37850;53.178;6.376;2023-04-03T08:45:32;6.20;99.90
51793;DHT22;37850;53.178;6.376;2023-04-03T08:48:13;6.30;99.90
51793;DHT22;37850;53.178;6.376;2023-04-03T08:50:46;6.30;99.90
51793;DHT22;37850;53.178;6.376;2023-04-03T08:53:19;6.40;99.90
51793;DHT22;37850;53.178;6.376;2023-04-03T08:55:48;6.40;99.90
51793;DHT22;37850;53.178;6.376;2023-04-03T08:58:16;6.40;99.90
51793;DHT22;37850;53.178;6.376;2023-04-03T09:03:22;6.30;99.90
51793;DHT22;37850;53.178;6.376;2023-04-03T09:05:58;6.30;99.90
51793;DHT22;37850;53.178;6.376;2023-04-03T09:08:31;6.40;99.90
51793;DHT22;37850;53.178;6.376;2023-04-03T09:13:36;6.60;99.90
51793;DHT22;37850;53.178;6.376;2023-04-03T09:21:47;6.70;99.90
51793;DHT22;37850;53.178;6.376;2023-04-03T09:24:15;6.70;99.90
51793;DHT22;37850;53.178;6.376;2023-04-03T09:26:51;6.70;99.90
51793;DHT22;37850;53.178;6.376;2023-04-03T09:29:21;6.80;99.90
51793;DHT22;37850;53.178;6.376;2023-04-03T09:31:52;6.80;99.90
51793;DHT22;37850;53.178;6.376;2023-04-03T09:34:27;6.80;99.90
51793;DHT22;37850;53.178;6.376;2023-04-03T09:36:56;6.90;99.90
51793;DHT22;37850;53.178;6.376;2023-04-03T09:39:27;6.90;99.90
51793;DHT22;37850;53.178;6.376;2023-04-03T09:41:58;7.00;99.90
51793;DHT22;37850;53.178;6.376;2023-04-03T09:46:55;7.10;99.90
51793;DHT22;37850;53.178;6.376;2023-04-03T09:49:21;7.10;99.90
51793;DHT22;37850;53.178;6.376;2023-04-03T09:51:47;7.10;99.90
51793;DHT22;37850;53.178;6.376;2023-04-03T09:54:36;7.00;99.70
51793;DHT22;37850;53.178;6.376;2023-04-03T09:57:09;7.10;99.90
51793;DHT22;37850;53.178;6.376;2023-04-03T09:59:39;7.10;99.90
51793;DHT22;37850;53.178;6.376;2023-04-03T10:04:41;7.30;99.90
51793;DHT22;37850;53.178;6.376;2023-04-03T10:07:34;7.20;99.90
51793;DHT22;37850;53.178;6.376;2023-04-03T10:10:17;7.30;99.90
51793;DHT22;37850;53.178;6.376;2023-04-03T10:12:44;7.40;99.90
51793;DHT22;37850;53.178;6.376;2023-04-03T10:15:16;7.40;99.50
51793;DHT22;37850;53.178;6.376;2023-04-03T10:17:53;7.40;99.60
51793;DHT22;37850;53.178;6.376;2023-04-03T10:23:18;7.50;99.90
51793;DHT22;37850;53.178;6.376;2023-04-03T10:31:21;7.60;99.50
51793;DHT22;37850;53.178;6.376;2023-04-03T10:36:46;7.60;98.50
51793;DHT22;37850;53.178;6.376;2023-04-03T10:39:42;7.60;98.40
51793;DHT22;37850;53.178;6.376;2023-04-03T10:45:03;7.60;97.20
51793;DHT22;37850;53.178;6.376;2023-04-03T10:47:39;7.60;97.90
51793;DHT22;37850;53.178;6.376;2023-04-03T10:50:27;7.60;97.90
51793;DHT22;37850;53.178;6.376;2023-04-03T10:53:29;7.60;97.00
51793;DHT22;37850;53.178;6.376;2023-04-03T10:56:15;7.70;97.50
51793;DHT22;37850;53.178;6.376;2023-04-03T10:58:52;7.80;97.60
51793;DHT22;37850;53.178;6.376;2023-04-03T11:01:22;7.80;97.00
51793;DHT22;37850;53.178;6.376;2023-04-03T11:03:53;7.90;97.40
51793;DHT22;37850;53.178;6.376;2023-04-03T11:06:22;7.90;96.50
51793;DHT22;37850;53.178;6.376;2023-04-03T11:09:07;8.00;96.10
51793;DHT22;37850;53.178;6.376;2023-04-03T11:11:39;8.00;96.00
51793;DHT22;37850;53.178;6.376;2023-04-03T11:16:59;8.10;94.00
51793;DHT22;37850;53.178;6.376;2023-04-03T11:20:01;8.00;94.10
51793;DHT22;37850;53.178;6.376;2023-04-03T11:22:30;8.00;94.80
51793;DHT22;37850;53.178;6.376;2023-04-03T11:30:20;8.20;94.40
51793;DHT22;37850;53.178;6.376;2023-04-03T11:32:56;8.30;93.90
51793;DHT22;37850;53.178;6.376;2023-04-03T11:35:27;8.30;93.00
51793;DHT22;37850;53.178;6.376;2023-04-03T11:37:54;8.30;92.70
51793;DHT22;37850;53.178;6.376;2023-04-03T11:40:30;8.30;92.30
51793;DHT22;37850;53.178;6.376;2023-04-03T11:50:47;8.40;93.30
51793;DHT22;37850;53.178;6.376;2023-04-03T11:58:19;8.50;92.30
51793;DHT22;37850;53.178;6.376;2023-04-03T12:19:29;8.70;93.00
51793;DHT22;37850;53.178;6.376;2023-04-03T12:24:30;8.80;90.70
51793;DHT22;37850;53.178;6.376;2023-04-03T12:45:50;8.80;91.30
51793;DHT22;37850;53.178;6.376;2023-04-03T12:48:22;8.80;90.60
51793;DHT22;37850;53.178;6.376;2023-04-03T12:50:51;8.90;90.30
51793;DHT22;37850;53.178;6.376;2023-04-03T12:53:21;8.90;90.80
51793;DHT22;37850;53.178;6.376;2023-04-03T12:55:56;9.00;88.90
51793;DHT22;37850;53.178;6.376;2023-04-03T12:58:27;9.00;91.00
51793;DHT22;37850;53.178;6.376;2023-04-03T13:01:03;9.00;91.30
51793;DHT22;37850;53.178;6.376;2023-04-03T13:03:30;9.00;90.80
51793;DHT22;37850;53.178;6.376;2023-04-03T13:06:02;9.10;90.70
51793;DHT22;37850;53.178;6.376;2023-04-03T13:08:30;9.10;90.60
51793;DHT22;37850;53.178;6.376;2023-04-03T13:11:02;9.10;90.60
51793;DHT22;37850;53.178;6.376;2023-04-03T13:13:28;9.10;90.90
51793;DHT22;37850;53.178;6.376;2023-04-03T13:15:55;9.00;89.50
51793;DHT22;37850;53.178;6.376;2023-04-03T13:18:26;8.90;90.10
51793;DHT22;37850;53.178;6.376;2023-04-03T13:20:56;9.30;90.40
51793;DHT22;37850;53.178;6.376;2023-04-03T13:23:23;9.00;90.60
51793;DHT22;37850;53.178;6.376;2023-04-03T13:25:49;9.00;89.10
51793;DHT22;37850;53.178;6.376;2023-04-03T13:28:20;9.00;89.00
51793;DHT22;37850;53.178;6.376;2023-04-03T13:31:14;9.00;88.60
51793;DHT22;37850;53.178;6.376;2023-04-03T13:36:27;9.00;87.50
51793;DHT22;37850;53.178;6.376;2023-04-03T13:39:17;9.00;90.00
51793;DHT22;37850;53.178;6.376;2023-04-03T13:41:51;9.00;88.40
51793;DHT22;37850;53.178;6.376;2023-04-03T13:44:38;9.00;88.60
51793;DHT22;37850;53.178;6.376;2023-04-03T13:50:04;9.00;87.40
51793;DHT22;37850;53.178;6.376;2023-04-03T13:52:30;9.10;88.10
51793;DHT22;37850;53.178;6.376;2023-04-03T13:55:24;8.90;86.30
51793;DHT22;37850;53.178;6.376;2023-04-03T13:57:55;8.90;87.60
51793;DHT22;37850;53.178;6.376;2023-04-03T14:02:57;9.00;87.10
51793;DHT22;37850;53.178;6.376;2023-04-03T14:05:24;9.00;88.60
51793;DHT22;37850;53.178;6.376;2023-04-03T14:07:51;9.30;85.60
51793;DHT22;37850;53.178;6.376;2023-04-03T14:10:20;9.00;87.10
51793;DHT22;37850;53.178;6.376;2023-04-03T14:12:47;9.00;87.80
51793;DHT22;37850;53.178;6.376;2023-04-03T14:15:23;9.00;88.70
51793;DHT22;37850;53.178;6.376;2023-04-03T14:17:51;9.00;88.10
51793;DHT22;37850;53.178;6.376;2023-04-03T14:20:20;9.10;87.90
51793;DHT22;37850;53.178;6.376;2023-04-03T14:22:47;9.10;87.80
51793;DHT22;37850;53.178;6.376;2023-04-03T14:25:15;9.10;86.90
51793;DHT22;37850;53.178;6.376;2023-04-03T14:27:46;9.10;89.40
51793;DHT22;37850;53.178;6.376;2023-04-03T14:30:27;9.10;90.20
51793;DHT22;37850;53.178;6.376;2023-04-03T14:32:54;9.00;90.30
51793;DHT22;37850;53.178;6.376;2023-04-03T14:35:20;9.00;90.80
51793;DHT22;37850;53.178;6.376;2023-04-03T14:37:51;9.00;90.80
51793;DHT22;37850;53.178;6.376;2023-04-03T14:40:25;9.00;90.80
51793;DHT22;37850;53.178;6.376;2023-04-03T14:42:55;8.90;90.80
51793;DHT22;37850;53.178;6.376;2023-04-03T14:45:23;8.80;91.10
51793;DHT22;37850;53.178;6.376;2023-04-03T14:47:51;8.80;90.60
51793;DHT22;37850;53.178;6.376;2023-04-03T14:50:21;8.70;91.00
51793;DHT22;37850;53.178;6.376;2023-04-03T14:52:49;8.70;90.90
51793;DHT22;37850;53.178;6.376;2023-04-03T14:55:17;8.70;91.40
51793;DHT22;37850;53.178;6.376;2023-04-03T14:57:43;8.60;91.00
51793;DHT22;37850;53.178;6.376;2023-04-03T15:00:15;8.60;91.80
51793;DHT22;37850;53.178;6.376;2023-04-03T15:02:42;8.60;91.70
51793;DHT22;37850;53.178;6.376;2023-04-03T15:05:10;8.60;91.80
51793;DHT22;37850;53.178;6.376;2023-04-03T15:07:43;8.60;92.10
51793;DHT22;37850;53.178;6.376;2023-04-03T15:10:20;8.60;92.10
51793;DHT22;37850;53.178;6.376;2023-04-03T15:12:47;8.50;92.50
51793;DHT22;37850;53.178;6.376;2023-04-03T15:15:14;8.50;92.10
51793;DHT22;37850;53.178;6.376;2023-04-03T15:17:41;8.40;92.30
51793;DHT22;37850;53.178;6.376;2023-04-03T15:20:18;8.40;92.50
51793;DHT22;37850;53.178;6.376;2023-04-03T15:22:44;8.40;92.40
51793;DHT22;37850;53.178;6.376;2023-04-03T15:25:10;8.80;92.70
51793;DHT22;37850;53.178;6.376;2023-04-03T15:27:36;8.40;92.90
51793;DHT22;37850;53.178;6.376;2023-04-03T15:30:04;8.30;93.20
51793;DHT22;37850;53.178;6.376;2023-04-03T15:32:31;8.30;93.60
51793;DHT22;37850;53.178;6.376;2023-04-03T15:34:57;8.40;94.10
51793;DHT22;37850;53.178;6.376;2023-04-03T15:37:23;8.40;93.70
51793;DHT22;37850;53.178;6.376;2023-04-03T15:39:48;8.40;93.80
51793;DHT22;37850;53.178;6.376;2023-04-03T15:42:17;8.40;93.90
51793;DHT22;37850;53.178;6.376;2023-04-03T15:44:43;8.80;93.50
51793;DHT22;37850;53.178;6.376;2023-04-03T15:47:09;8.40;92.90
51793;DHT22;37850;53.178;6.376;2023-04-03T15:49:35;8.40;92.90
51793;DHT22;37850;53.178;6.376;2023-04-03T15:52:01;8.40;92.50
51793;DHT22;37850;53.178;6.376;2023-04-03T15:54:27;8.30;92.80
51793;DHT22;37850;53.178;6.376;2023-04-03T15:56:55;8.30;93.10
51793;DHT22;37850;53.178;6.376;2023-04-03T15:59:20;8.30;93.60
51793;DHT22;37850;53.178;6.376;2023-04-03T16:01:46;8.30;93.20
51793;DHT22;37850;53.178;6.376;2023-04-03T16:04:13;8.30;92.60
51793;DHT22;37850;53.178;6.376;2023-04-03T16:06:39;8.30;92.90
51793;DHT22;37850;53.178;6.376;2023-04-03T16:09:04;8.30;93.00
51793;DHT22;37850;53.178;6.376;2023-04-03T16:11:31;8.30;92.50
51793;DHT22;37850;53.178;6.376;2023-04-03T16:13:57;8.20;92.70
51793;DHT22;37850;53.178;6.376;2023-04-03T16:16:24;8.20;92.60
51793;DHT22;37850;53.178;6.376;2023-04-03T16:18:54;8.10;92.20
51793;DHT22;37850;53.178;6.376;2023-04-03T16:21:21;8.00;92.70
51793;DHT22;37850;53.178;6.376;2023-04-03T16:23:48;7.90;92.70
51793;DHT22;37850;53.178;6.376;2023-04-03T16:26:14;7.90;92.80
51793;DHT22;37850;53.178;6.376;2023-04-03T16:28:40;7.90;93.00
51793;DHT22;37850;53.178;6.376;2023-04-03T16:31:07;7.80;92.90
51793;DHT22;37850;53.178;6.376;2023-04-03T16:33:33;7.70;92.70
51793;DHT22;37850;53.178;6.376;2023-04-03T16:36:00;7.70;93.40
51793;DHT22;37850;53.178;6.376;2023-04-03T16:38:25;7.70;93.40
51793;DHT22;37850;53.178;6.376;2023-04-03T16:40:54;7.60;93.40
51793;DHT22;37850;53.178;6.376;2023-04-03T16:43:22;7.80;94.20
51793;DHT22;37850;53.178;6.376;2023-04-03T16:45:48;7.50;94.20
51793;DHT22;37850;53.178;6.376;2023-04-03T16:48:14;7.50;94.40
51793;DHT22;37850;53.178;6.376;2023-04-03T16:50:40;7.50;93.90
51793;DHT22;37850;53.178;6.376;2023-04-03T16:53:05;7.40;94.00
51793;DHT22;37850;53.178;6.376;2023-04-03T16:55:35;7.50;94.00
51793;DHT22;37850;53.178;6.376;2023-04-03T16:58:04;7.40;94.30
51793;DHT22;37850;53.178;6.376;2023-04-03T17:00:30;7.30;94.60
51793;DHT22;37850;53.178;6.376;2023-04-03T17:02:56;7.30;94.60
51793;DHT22;37850;53.178;6.376;2023-04-03T17:05:22;7.30;94.60
51793;DHT22;37850;53.178;6.376;2023-04-03T17:07:50;7.20;94.90
51793;DHT22;37850;53.178;6.376;2023-04-03T17:10:15;7.20;94.90
51793;DHT22;37850;53.178;6.376;2023-04-03T17:12:41;7.20;95.10
51793;DHT22;37850;53.178;6.376;2023-04-03T17:15:07;7.10;95.30
51793;DHT22;37850;53.178;6.376;2023-04-03T17:17:34;7.00;95.50
51793;DHT22;37850;53.178;6.376;2023-04-03T17:20:00;7.00;95.70
51793;DHT22;37850;53.178;6.376;2023-04-03T17:22:29;6.90;96.00
51793;DHT22;37850;53.178;6.376;2023-04-03T17:24:55;6.80;96.30
51793;DHT22;37850;53.178;6.376;2023-04-03T17:27:23;6.80;96.60
51793;DHT22;37850;53.178;6.376;2023-04-03T17:29:49;6.70;96.60
51793;DHT22;37850;53.178;6.376;2023-04-03T17:32:14;6.70;96.70
51793;DHT22;37850;53.178;6.376;2023-04-03T17:34:40;6.60;97.00
51793;DHT22;37850;53.178;6.376;2023-04-03T17:37:06;6.60;97.20
51793;DHT22;37850;53.178;6.376;2023-04-03T17:39:32;6.50;97.40